sensor_id;sensor_type;location;lat;lon;timestamp;temperature;humidity
37998;DHT22;24079;51.824;4.682;2023-04-25T00:00:27;7.60;99.90
37998;DHT22;24079;51.824;4.682;2023-04-25T00:02:53;7.60;99.90
37998;DHT22;24079;51.824;4.682;2023-04-25T00:05:18;7.50;99.90
37998;DHT22;24079;51.824;4.682;2023-04-25T00:07:45;7.50;99.90
37998;DHT22;24079;51.824;4.682;2023-04-25T00:10:11;7.50;99.90
37998;DHT22;24079;51.824;4.682;2023-04-25T00:12:37;7.40;99.90
37998;DHT22;24079;51.824;4.682;2023-04-25T00:15:04;7.40;99.90
37998;DHT22;24079;51.824;4.682;2023-04-25T00:17:30;7.50;99.90
37998;DHT22;24079;51.824;4.682;2023-04-25T00:19:56;7.50;99.90
37998;DHT22;24079;51.824;4.682;2023-04-25T00:22:23;7.50;99.90
37998;DHT22;24079;51.824;4.682;2023-04-25T00:24:49;7.50;99.90
37998;DHT22;24079;51.824;4.682;2023-04-25T00:27:15;7.40;99.90
37998;DHT22;24079;51.824;4.682;2023-04-25T00:29:41;7.40;99.90
37998;DHT22;24079;51.824;4.682;2023-04-25T00:32:06;7.50;99.90
37998;DHT22;24079;51.824;4.682;2023-04-25T00:34:32;7.40;99.90
37998;DHT22;24079;51.824;4.682;2023-04-25T00:36:57;7.40;99.90
37998;DHT22;24079;51.824;4.682;2023-04-25T00:39:23;7.40;99.90
37998;DHT22;24079;51.824;4.682;2023-04-25T00:41:50;7.30;99.90
37998;DHT22;24079;51.824;4.682;2023-04-25T00:44:19;7.30;99.90
37998;DHT22;24079;51.824;4.682;2023-04-25T00:46:47;7.30;99.90
37998;DHT22;24079;51.824;4.682;2023-04-25T00:49:13;7.30;99.90
37998;DHT22;24079;51.824;4.682;2023-04-25T00:51:41;7.30;99.90
37998;DHT22;24079;51.824;4.682;2023-04-25T00:54:07;7.30;99.90
37998;DHT22;24079;51.824;4.682;2023-04-25T00:56:32;7.30;99.90
37998;DHT22;24079;51.824;4.682;2023-04-25T00:58:58;7.20;99.90
37998;DHT22;24079;51.824;4.682;2023-04-25T01:01:24;7.30;99.90
37998;DHT22;24079;51.824;4.682;2023-04-25T01:03:50;7.30;99.90
37998;DHT22;24079;51.824;4.682;2023-04-25T01:06:16;7.30;99.90
37998;DHT22;24079;51.824;4.682;2023-04-25T01:08:42;7.30;99.90
37998;DHT22;24079;51.824;4.682;2023-04-25T01:11:08;7.30;99.90
37998;DHT22;24079;51.824;4.682;2023-04-25T01:13:34;7.20;99.90
37998;DHT22;24079;51.824;4.682;2023-04-25T01:16:01;7.20;99.90
37998;DHT22;24079;51.824;4.682;2023-04-25T01:18:27;7.20;99.90
37998;DHT22;24079;51.824;4.682;2023-04-25T01:20:53;7.20;99.90
37998;DHT22;24079;51.824;4.682;2023-04-25T01:23:20;7.20;99.90
37998;DHT22;24079;51.824;4.682;2023-04-25T01:25:47;7.20;99.90
37998;DHT22;24079;51.824;4.682;2023-04-25T01:28:13;7.20;99.90
37998;DHT22;24079;51.824;4.682;2023-04-25T01:30:39;7.20;99.90
37998;DHT22;24079;51.824;4.682;2023-04-25T01:33:08;7.20;99.90
37998;DHT22;24079;51.824;4.682;2023-04-25T01:35:33;7.20;99.90
37998;DHT22;24079;51.824;4.682;2023-04-25T01:37:59;7.30;99.90
37998;DHT22;24079;51.824;4.682;2023-04-25T01:40:26;7.40;99.90
37998;DHT22;24079;51.824;4.682;2023-04-25T01:42:53;7.40;99.90
37998;DHT22;24079;51.824;4.682;2023-04-25T01:45:19;7.40;99.90
37998;DHT22;24079;51.824;4.682;2023-04-25T01:47:45;7.40;99.90
37998;DHT22;24079;51.824;4.682;2023-04-25T01:50:15;7.40;99.90
37998;DHT22;24079;51.824;4.682;2023-04-25T01:52:40;7.50;99.90
37998;DHT22;24079;51.824;4.682;2023-04-25T01:55:07;7.50;99.90
37998;DHT22;24079;51.824;4.682;2023-04-25T01:57:32;7.50;99.90
37998;DHT22;24079;51.824;4.682;2023-04-25T02:00:00;7.50;99.90
37998;DHT22;24079;51.824;4.682;2023-04-25T02:02:26;7.60;99.90
37998;DHT22;24079;51.824;4.682;2023-04-25T02:04:52;7.60;99.90
37998;DHT22;24079;51.824;4.682;2023-04-25T02:07:19;7.60;99.90
37998;DHT22;24079;51.824;4.682;2023-04-25T02:09:45;7.60;99.90
37998;DHT22;24079;51.824;4.682;2023-04-25T02:12:10;7.50;99.90
37998;DHT22;24079;51.824;4.682;2023-04-25T02:14:36;7.50;99.90
37998;DHT22;24079;51.824;4.682;2023-04-25T02:17:02;7.60;99.90
37998;DHT22;24079;51.824;4.682;2023-04-25T02:19:28;7.60;99.90
37998;DHT22;24079;51.824;4.682;2023-04-25T02:21:54;7.60;99.90
37998;DHT22;24079;51.824;4.682;2023-04-25T02:24:19;7.60;99.90
37998;DHT22;24079;51.824;4.682;2023-04-25T02:26:45;7.50;99.90
37998;DHT22;24079;51.824;4.682;2023-04-25T02:29:12;7.40;99.90
37998;DHT22;24079;51.824;4.682;2023-04-25T02:31:38;7.40;99.90
37998;DHT22;24079;51.824;4.682;2023-04-25T02:34:03;7.30;99.90
37998;DHT22;24079;51.824;4.682;2023-04-25T02:36:30;7.30;99.90
37998;DHT22;24079;51.824;4.682;2023-04-25T02:38:57;7.30;99.90
37998;DHT22;24079;51.824;4.682;2023-04-25T02:41:23;7.30;99.90
37998;DHT22;24079;51.824;4.682;2023-04-25T02:43:48;7.30;99.90
37998;DHT22;24079;51.824;4.682;2023-04-25T02:46:14;7.40;99.90
37998;DHT22;24079;51.824;4.682;2023-04-25T02:48:40;7.40;99.90
37998;DHT22;24079;51.824;4.682;2023-04-25T02:51:05;7.40;99.90
37998;DHT22;24079;51.824;4.682;2023-04-25T02:53:31;7.40;99.90
37998;DHT22;24079;51.824;4.682;2023-04-25T02:55:57;7.40;99.90
37998;DHT22;24079;51.824;4.682;2023-04-25T02:58:24;7.40;99.90
37998;DHT22;24079;51.824;4.682;2023-04-25T03:00:50;7.40;99.90
37998;DHT22;24079;51.824;4.682;2023-04-25T03:03:16;7.50;99.90
37998;DHT22;24079;51.824;4.682;2023-04-25T03:05:50;7.40;99.90
37998;DHT22;24079;51.824;4.682;2023-04-25T03:08:17;7.40;99.90
37998;DHT22;24079;51.824;4.682;2023-04-25T03:10:44;7.30;99.90
37998;DHT22;24079;51.824;4.682;2023-04-25T03:13:11;7.20;99.90
37998;DHT22;24079;51.824;4.682;2023-04-25T03:15:38;7.20;99.90
37998;DHT22;24079;51.824;4.682;2023-04-25T03:18:04;7.20;99.90
37998;DHT22;24079;51.824;4.682;2023-04-25T03:20:30;7.20;99.90
37998;DHT22;24079;51.824;4.682;2023-04-25T03:22:56;7.20;99.90
37998;DHT22;24079;51.824;4.682;2023-04-25T03:25:22;7.20;99.90
37998;DHT22;24079;51.824;4.682;2023-04-25T03:27:48;7.30;99.90
37998;DHT22;24079;51.824;4.682;2023-04-25T03:30:14;7.40;99.90
37998;DHT22;24079;51.824;4.682;2023-04-25T03:32:40;7.40;99.90
37998;DHT22;24079;51.824;4.682;2023-04-25T03:35:07;7.40;99.90
37998;DHT22;24079;51.824;4.682;2023-04-25T03:37:33;7.50;99.90
37998;DHT22;24079;51.824;4.682;2023-04-25T03:39:58;7.40;99.90
37998;DHT22;24079;51.824;4.682;2023-04-25T03:42:24;7.30;99.90
37998;DHT22;24079;51.824;4.682;2023-04-25T03:44:50;7.20;99.90
37998;DHT22;24079;51.824;4.682;2023-04-25T03:47:16;7.20;99.90
37998;DHT22;24079;51.824;4.682;2023-04-25T03:49:42;7.30;99.90
37998;DHT22;24079;51.824;4.682;2023-04-25T03:52:07;7.30;99.90
37998;DHT22;24079;51.824;4.682;2023-04-25T03:54:33;7.30;99.90
37998;DHT22;24079;51.824;4.682;2023-04-25T03:56:59;7.20;99.90
37998;DHT22;24079;51.824;4.682;2023-04-25T03:59:25;7.30;99.90
37998;DHT22;24079;51.824;4.682;2023-04-25T04:01:51;7.20;99.90
37998;DHT22;24079;51.824;4.682;2023-04-25T04:04:17;7.20;99.90
37998;DHT22;24079;51.824;4.682;2023-04-25T04:06:43;7.20;99.90
37998;DHT22;24079;51.824;4.682;2023-04-25T04:09:09;7.20;99.90
37998;DHT22;24079;51.824;4.682;2023-04-25T04:11:37;7.20;99.90
37998;DHT22;24079;51.824;4.682;2023-04-25T04:14:04;7.20;99.90
37998;DHT22;24079;51.824;4.682;2023-04-25T04:16:31;7.30;99.90
37998;DHT22;24079;51.824;4.682;2023-04-25T04:18:56;7.30;99.90
37998;DHT22;24079;51.824;4.682;2023-04-25T04:21:22;7.30;99.90
37998;DHT22;24079;51.824;4.682;2023-04-25T04:23:48;7.30;99.90
37998;DHT22;24079;51.824;4.682;2023-04-25T04:26:14;7.30;99.90
37998;DHT22;24079;51.824;4.682;2023-04-25T04:28:42;7.30;99.90
37998;DHT22;24079;51.824;4.682;2023-04-25T04:31:08;7.40;99.90
37998;DHT22;24079;51.824;4.682;2023-04-25T04:33:35;7.40;99.90
37998;DHT22;24079;51.824;4.682;2023-04-25T04:36:00;7.50;99.90
37998;DHT22;24079;51.824;4.682;2023-04-25T04:38:28;7.50;99.90
37998;DHT22;24079;51.824;4.682;2023-04-25T04:40:54;7.50;99.90
37998;DHT22;24079;51.824;4.682;2023-04-25T04:43:20;7.50;99.90
37998;DHT22;24079;51.824;4.682;2023-04-25T04:45:45;7.50;99.90
37998;DHT22;24079;51.824;4.682;2023-04-25T04:48:11;7.50;99.90
37998;DHT22;24079;51.824;4.682;2023-04-25T04:50:39;7.60;99.90
37998;DHT22;24079;51.824;4.682;2023-04-25T04:53:05;7.60;99.90
37998;DHT22;24079;51.824;4.682;2023-04-25T04:55:31;7.60;99.90
37998;DHT22;24079;51.824;4.682;2023-04-25T04:57:56;7.60;99.90
37998;DHT22;24079;51.824;4.682;2023-04-25T05:00:22;7.60;99.90
37998;DHT22;24079;51.824;4.682;2023-04-25T05:02:48;7.60;99.90
37998;DHT22;24079;51.824;4.682;2023-04-25T05:05:13;7.70;99.90
37998;DHT22;24079;51.824;4.682;2023-04-25T05:07:39;7.80;99.90
37998;DHT22;24079;51.824;4.682;2023-04-25T05:10:06;7.90;99.90
37998;DHT22;24079;51.824;4.682;2023-04-25T05:12:32;7.90;99.90
37998;DHT22;24079;51.824;4.682;2023-04-25T05:14:57;7.90;99.90
37998;DHT22;24079;51.824;4.682;2023-04-25T05:17:23;8.00;99.90
37998;DHT22;24079;51.824;4.682;2023-04-25T05:19:48;8.00;99.90
37998;DHT22;24079;51.824;4.682;2023-04-25T05:22:14;8.10;99.90
37998;DHT22;24079;51.824;4.682;2023-04-25T05:24:40;8.00;99.90
37998;DHT22;24079;51.824;4.682;2023-04-25T05:27:05;8.10;99.90
37998;DHT22;24079;51.824;4.682;2023-04-25T05:29:31;8.10;99.90
37998;DHT22;24079;51.824;4.682;2023-04-25T05:31:59;8.20;99.90
37998;DHT22;24079;51.824;4.682;2023-04-25T05:34:24;8.10;99.90
37998;DHT22;24079;51.824;4.682;2023-04-25T05:36:50;8.10;99.90
37998;DHT22;24079;51.824;4.682;2023-04-25T05:39:16;8.10;99.90
37998;DHT22;24079;51.824;4.682;2023-04-25T05:41:44;8.00;99.90
37998;DHT22;24079;51.824;4.682;2023-04-25T05:44:10;8.00;99.90
37998;DHT22;24079;51.824;4.682;2023-04-25T05:46:36;7.90;99.90
37998;DHT22;24079;51.824;4.682;2023-04-25T05:49:02;8.00;99.90
37998;DHT22;24079;51.824;4.682;2023-04-25T05:51:27;8.00;99.90
37998;DHT22;24079;51.824;4.682;2023-04-25T05:53:54;8.00;99.90
37998;DHT22;24079;51.824;4.682;2023-04-25T05:56:19;8.10;99.90
37998;DHT22;24079;51.824;4.682;2023-04-25T05:58:45;8.20;99.90
37998;DHT22;24079;51.824;4.682;2023-04-25T06:01:12;8.20;99.90
37998;DHT22;24079;51.824;4.682;2023-04-25T06:03:37;8.30;99.90
37998;DHT22;24079;51.824;4.682;2023-04-25T06:06:03;8.40;99.90
37998;DHT22;24079;51.824;4.682;2023-04-25T06:08:29;9.30;99.90
37998;DHT22;24079;51.824;4.682;2023-04-25T06:10:55;10.80;99.90
37998;DHT22;24079;51.824;4.682;2023-04-25T06:13:21;11.90;99.90
37998;DHT22;24079;51.824;4.682;2023-04-25T06:15:47;12.40;99.90
37998;DHT22;24079;51.824;4.682;2023-04-25T06:18:13;12.70;99.90
37998;DHT22;24079;51.824;4.682;2023-04-25T06:20:39;13.20;99.90
37998;DHT22;24079;51.824;4.682;2023-04-25T06:23:06;13.30;99.90
37998;DHT22;24079;51.824;4.682;2023-04-25T06:25:32;12.60;99.90
37998;DHT22;24079;51.824;4.682;2023-04-25T06:27:58;12.10;99.90
37998;DHT22;24079;51.824;4.682;2023-04-25T06:30:24;11.70;99.90
37998;DHT22;24079;51.824;4.682;2023-04-25T06:32:54;11.20;99.90
37998;DHT22;24079;51.824;4.682;2023-04-25T06:35:20;11.50;99.90
37998;DHT22;24079;51.824;4.682;2023-04-25T06:37:46;11.10;99.90
37998;DHT22;24079;51.824;4.682;2023-04-25T06:40:12;10.40;99.90
37998;DHT22;24079;51.824;4.682;2023-04-25T06:42:38;10.80;99.90
37998;DHT22;24079;51.824;4.682;2023-04-25T06:45:05;11.30;99.90
37998;DHT22;24079;51.824;4.682;2023-04-25T06:47:31;11.50;99.90
37998;DHT22;24079;51.824;4.682;2023-04-25T06:49:57;11.60;99.90
37998;DHT22;24079;51.824;4.682;2023-04-25T06:52:22;10.90;99.90
37998;DHT22;24079;51.824;4.682;2023-04-25T06:54:48;10.40;99.90
37998;DHT22;24079;51.824;4.682;2023-04-25T06:57:14;9.90;99.90
37998;DHT22;24079;51.824;4.682;2023-04-25T06:59:40;9.70;99.90
37998;DHT22;24079;51.824;4.682;2023-04-25T07:02:05;9.60;99.90
37998;DHT22;24079;51.824;4.682;2023-04-25T07:04:31;9.60;99.90
37998;DHT22;24079;51.824;4.682;2023-04-25T07:06:57;9.40;99.90
37998;DHT22;24079;51.824;4.682;2023-04-25T07:09:22;9.50;99.90
37998;DHT22;24079;51.824;4.682;2023-04-25T07:11:48;9.50;99.90
37998;DHT22;24079;51.824;4.682;2023-04-25T07:14:14;9.60;99.90
37998;DHT22;24079;51.824;4.682;2023-04-25T07:16:40;9.70;99.90
37998;DHT22;24079;51.824;4.682;2023-04-25T07:19:06;9.60;99.90
37998;DHT22;24079;51.824;4.682;2023-04-25T07:21:31;9.70;99.90
37998;DHT22;24079;51.824;4.682;2023-04-25T07:23:58;9.90;99.90
37998;DHT22;24079;51.824;4.682;2023-04-25T07:26:23;9.70;99.90
37998;DHT22;24079;51.824;4.682;2023-04-25T07:28:49;9.90;99.90
37998;DHT22;24079;51.824;4.682;2023-04-25T07:31:17;10.10;99.90
37998;DHT22;24079;51.824;4.682;2023-04-25T07:33:44;10.30;99.90
37998;DHT22;24079;51.824;4.682;2023-04-25T07:36:10;10.50;99.90
37998;DHT22;24079;51.824;4.682;2023-04-25T07:38:36;11.20;99.90
37998;DHT22;24079;51.824;4.682;2023-04-25T07:41:01;11.90;99.90
37998;DHT22;24079;51.824;4.682;2023-04-25T07:43:27;12.80;99.90
37998;DHT22;24079;51.824;4.682;2023-04-25T07:45:53;13.40;99.90
37998;DHT22;24079;51.824;4.682;2023-04-25T07:48:18;13.00;99.90
37998;DHT22;24079;51.824;4.682;2023-04-25T07:50:44;12.30;99.90
37998;DHT22;24079;51.824;4.682;2023-04-25T07:53:10;11.80;99.90
37998;DHT22;24079;51.824;4.682;2023-04-25T07:55:36;11.80;99.90
37998;DHT22;24079;51.824;4.682;2023-04-25T07:58:08;11.80;99.90
37998;DHT22;24079;51.824;4.682;2023-04-25T08:00:34;11.80;99.90
37998;DHT22;24079;51.824;4.682;2023-04-25T08:03:00;12.40;99.90
37998;DHT22;24079;51.824;4.682;2023-04-25T08:05:25;12.80;99.90
37998;DHT22;24079;51.824;4.682;2023-04-25T08:07:51;13.50;99.90
37998;DHT22;24079;51.824;4.682;2023-04-25T08:10:17;14.80;99.90
37998;DHT22;24079;51.824;4.682;2023-04-25T08:12:42;14.50;99.90
37998;DHT22;24079;51.824;4.682;2023-04-25T08:15:08;13.60;99.90
37998;DHT22;24079;51.824;4.682;2023-04-25T08:17:34;13.40;99.90
37998;DHT22;24079;51.824;4.682;2023-04-25T08:20:00;14.00;99.90
37998;DHT22;24079;51.824;4.682;2023-04-25T08:22:25;14.80;99.90
37998;DHT22;24079;51.824;4.682;2023-04-25T08:24:51;14.70;99.90
37998;DHT22;24079;51.824;4.682;2023-04-25T08:27:18;14.80;99.90
37998;DHT22;24079;51.824;4.682;2023-04-25T08:29:43;15.60;99.90
37998;DHT22;24079;51.824;4.682;2023-04-25T08:32:09;15.40;99.90
37998;DHT22;24079;51.824;4.682;2023-04-25T08:34:34;15.30;99.90
37998;DHT22;24079;51.824;4.682;2023-04-25T08:37:02;15.10;99.90
37998;DHT22;24079;51.824;4.682;2023-04-25T08:39:29;15.80;99.90
37998;DHT22;24079;51.824;4.682;2023-04-25T08:41:55;15.70;99.90
37998;DHT22;24079;51.824;4.682;2023-04-25T08:44:22;15.10;99.90
37998;DHT22;24079;51.824;4.682;2023-04-25T08:46:49;14.30;99.90
37998;DHT22;24079;51.824;4.682;2023-04-25T08:49:17;13.50;99.90
37998;DHT22;24079;51.824;4.682;2023-04-25T08:51:46;12.50;99.90
37998;DHT22;24079;51.824;4.682;2023-04-25T08:54:14;12.00;99.90
37998;DHT22;24079;51.824;4.682;2023-04-25T08:56:49;11.50;99.90
37998;DHT22;24079;51.824;4.682;2023-04-25T08:59:15;11.00;99.90
37998;DHT22;24079;51.824;4.682;2023-04-25T09:01:40;10.90;99.90
37998;DHT22;24079;51.824;4.682;2023-04-25T09:04:06;10.80;99.90
37998;DHT22;24079;51.824;4.682;2023-04-25T09:06:32;10.80;99.90
37998;DHT22;24079;51.824;4.682;2023-04-25T09:09:07;10.80;99.90
37998;DHT22;24079;51.824;4.682;2023-04-25T09:11:34;10.80;99.90
37998;DHT22;24079;51.824;4.682;2023-04-25T09:14:20;10.80;99.90
37998;DHT22;24079;51.824;4.682;2023-04-25T09:19:30;11.40;99.90
37998;DHT22;24079;51.824;4.682;2023-04-25T09:21:58;12.40;99.90
37998;DHT22;24079;51.824;4.682;2023-04-25T09:24:43;12.90;99.90
37998;DHT22;24079;51.824;4.682;2023-04-25T09:27:12;12.40;99.90
37998;DHT22;24079;51.824;4.682;2023-04-25T09:29:40;12.20;99.90
37998;DHT22;24079;51.824;4.682;2023-04-25T09:32:20;11.80;99.90
37998;DHT22;24079;51.824;4.682;2023-04-25T09:34:48;11.50;99.90
37998;DHT22;24079;51.824;4.682;2023-04-25T09:37:22;11.10;99.90
37998;DHT22;24079;51.824;4.682;2023-04-25T09:39:53;11.10;99.90
37998;DHT22;24079;51.824;4.682;2023-04-25T09:42:25;11.10;99.90
37998;DHT22;24079;51.824;4.682;2023-04-25T09:44:55;11.20;99.90
37998;DHT22;24079;51.824;4.682;2023-04-25T09:47:26;11.40;99.90
37998;DHT22;24079;51.824;4.682;2023-04-25T09:49:52;11.80;99.90
37998;DHT22;24079;51.824;4.682;2023-04-25T09:52:20;12.00;99.90
37998;DHT22;24079;51.824;4.682;2023-04-25T09:54:47;12.30;99.90
37998;DHT22;24079;51.824;4.682;2023-04-25T09:57:19;12.80;99.90
37998;DHT22;24079;51.824;4.682;2023-04-25T09:59:45;12.80;99.90
37998;DHT22;24079;51.824;4.682;2023-04-25T10:02:12;13.40;99.90
37998;DHT22;24079;51.824;4.682;2023-04-25T10:04:38;13.60;99.90
37998;DHT22;24079;51.824;4.682;2023-04-25T10:07:08;13.40;99.90
37998;DHT22;24079;51.824;4.682;2023-04-25T10:09:37;12.60;99.90
37998;DHT22;24079;51.824;4.682;2023-04-25T10:12:05;12.00;99.90
37998;DHT22;24079;51.824;4.682;2023-04-25T10:14:31;11.70;99.90
37998;DHT22;24079;51.824;4.682;2023-04-25T10:16:58;11.60;99.90
37998;DHT22;24079;51.824;4.682;2023-04-25T10:19:25;11.40;99.90
37998;DHT22;24079;51.824;4.682;2023-04-25T10:22:08;11.30;99.90
37998;DHT22;24079;51.824;4.682;2023-04-25T10:24:38;11.20;99.90
37998;DHT22;24079;51.824;4.682;2023-04-25T10:27:04;11.50;99.90
37998;DHT22;24079;51.824;4.682;2023-04-25T10:29:31;12.00;99.90
37998;DHT22;24079;51.824;4.682;2023-04-25T10:31:57;12.50;99.90
37998;DHT22;24079;51.824;4.682;2023-04-25T10:34:40;12.80;99.90
37998;DHT22;24079;51.824;4.682;2023-04-25T10:37:09;13.10;99.90
37998;DHT22;24079;51.824;4.682;2023-04-25T10:39:35;12.90;99.90
37998;DHT22;24079;51.824;4.682;2023-04-25T10:42:02;12.60;99.90
37998;DHT22;24079;51.824;4.682;2023-04-25T10:44:31;12.50;99.90
37998;DHT22;24079;51.824;4.682;2023-04-25T10:46:58;13.10;99.90
37998;DHT22;24079;51.824;4.682;2023-04-25T10:49:41;13.80;99.90
37998;DHT22;24079;51.824;4.682;2023-04-25T10:54:53;13.00;99.90
37998;DHT22;24079;51.824;4.682;2023-04-25T10:57:29;12.20;99.90
37998;DHT22;24079;51.824;4.682;2023-04-25T10:59:59;11.40;99.90
37998;DHT22;24079;51.824;4.682;2023-04-25T11:02:27;11.10;99.90
37998;DHT22;24079;51.824;4.682;2023-04-25T11:04:54;10.90;99.90
37998;DHT22;24079;51.824;4.682;2023-04-25T11:07:23;11.10;99.90
37998;DHT22;24079;51.824;4.682;2023-04-25T11:09:51;11.10;99.90
37998;DHT22;24079;51.824;4.682;2023-04-25T11:12:17;11.00;99.90
37998;DHT22;24079;51.824;4.682;2023-04-25T11:14:43;11.30;99.90
37998;DHT22;24079;51.824;4.682;2023-04-25T11:17:09;11.80;99.90
37998;DHT22;24079;51.824;4.682;2023-04-25T11:19:35;11.70;99.90
37998;DHT22;24079;51.824;4.682;2023-04-25T11:22:02;11.30;99.90
37998;DHT22;24079;51.824;4.682;2023-04-25T11:24:35;11.30;99.90
37998;DHT22;24079;51.824;4.682;2023-04-25T11:27:03;11.30;99.90
37998;DHT22;24079;51.824;4.682;2023-04-25T11:29:30;11.40;99.90
37998;DHT22;24079;51.824;4.682;2023-04-25T11:31:57;11.50;99.90
37998;DHT22;24079;51.824;4.682;2023-04-25T11:34:27;11.40;99.90
37998;DHT22;24079;51.824;4.682;2023-04-25T11:36:56;11.40;99.90
37998;DHT22;24079;51.824;4.682;2023-04-25T11:39:23;11.80;99.90
37998;DHT22;24079;51.824;4.682;2023-04-25T11:41:49;12.50;99.90
37998;DHT22;24079;51.824;4.682;2023-04-25T11:44:16;12.90;99.90
37998;DHT22;24079;51.824;4.682;2023-04-25T11:46:42;12.60;99.90
37998;DHT22;24079;51.824;4.682;2023-04-25T11:49:08;11.90;99.90
37998;DHT22;24079;51.824;4.682;2023-04-25T11:51:41;11.70;99.90
37998;DHT22;24079;51.824;4.682;2023-04-25T11:54:07;11.40;99.90
37998;DHT22;24079;51.824;4.682;2023-04-25T11:56:33;11.20;99.90
37998;DHT22;24079;51.824;4.682;2023-04-25T11:59:01;11.00;99.90
37998;DHT22;24079;51.824;4.682;2023-04-25T12:01:30;11.00;99.90
37998;DHT22;24079;51.824;4.682;2023-04-25T12:03:57;11.00;99.90
37998;DHT22;24079;51.824;4.682;2023-04-25T12:06:29;11.30;99.90
37998;DHT22;24079;51.824;4.682;2023-04-25T12:09:01;11.60;99.90
37998;DHT22;24079;51.824;4.682;2023-04-25T12:11:26;11.60;99.90
37998;DHT22;24079;51.824;4.682;2023-04-25T12:13:52;11.60;99.90
37998;DHT22;24079;51.824;4.682;2023-04-25T12:16:19;11.40;99.90
37998;DHT22;24079;51.824;4.682;2023-04-25T12:18:44;11.50;99.90
37998;DHT22;24079;51.824;4.682;2023-04-25T12:21:10;11.70;99.90
37998;DHT22;24079;51.824;4.682;2023-04-25T12:23:38;12.00;99.90
37998;DHT22;24079;51.824;4.682;2023-04-25T12:26:04;12.30;99.90
37998;DHT22;24079;51.824;4.682;2023-04-25T12:28:32;12.10;99.90
37998;DHT22;24079;51.824;4.682;2023-04-25T12:31:04;12.20;99.90
37998;DHT22;24079;51.824;4.682;2023-04-25T12:33:35;12.50;99.90
37998;DHT22;24079;51.824;4.682;2023-04-25T12:36:03;12.30;99.90
37998;DHT22;24079;51.824;4.682;2023-04-25T12:38:37;12.00;99.90
37998;DHT22;24079;51.824;4.682;2023-04-25T12:41:03;12.10;99.90
37998;DHT22;24079;51.824;4.682;2023-04-25T12:43:29;12.10;99.90
37998;DHT22;24079;51.824;4.682;2023-04-25T12:45:55;12.40;99.90
37998;DHT22;24079;51.824;4.682;2023-04-25T12:48:22;12.60;99.90
37998;DHT22;24079;51.824;4.682;2023-04-25T12:50:49;12.60;99.90
37998;DHT22;24079;51.824;4.682;2023-04-25T12:53:16;12.40;99.90
37998;DHT22;24079;51.824;4.682;2023-04-25T12:55:42;12.20;99.90
37998;DHT22;24079;51.824;4.682;2023-04-25T12:58:07;11.80;99.90
37998;DHT22;24079;51.824;4.682;2023-04-25T13:00:33;11.80;99.90
37998;DHT22;24079;51.824;4.682;2023-04-25T13:02:59;11.60;99.90
37998;DHT22;24079;51.824;4.682;2023-04-25T13:05:25;11.70;99.90
37998;DHT22;24079;51.824;4.682;2023-04-25T13:07:50;11.60;99.90
37998;DHT22;24079;51.824;4.682;2023-04-25T13:10:17;11.40;99.90
37998;DHT22;24079;51.824;4.682;2023-04-25T13:12:43;11.40;99.90
37998;DHT22;24079;51.824;4.682;2023-04-25T13:15:09;11.50;99.90
37998;DHT22;24079;51.824;4.682;2023-04-25T13:17:37;11.70;99.90
37998;DHT22;24079;51.824;4.682;2023-04-25T13:20:06;12.10;99.90
37998;DHT22;24079;51.824;4.682;2023-04-25T13:22:34;12.40;99.90
37998;DHT22;24079;51.824;4.682;2023-04-25T13:25:03;12.80;99.90
37998;DHT22;24079;51.824;4.682;2023-04-25T13:27:28;13.20;99.90
37998;DHT22;24079;51.824;4.682;2023-04-25T13:29:55;12.70;99.90
37998;DHT22;24079;51.824;4.682;2023-04-25T13:32:21;12.50;99.90
37998;DHT22;24079;51.824;4.682;2023-04-25T13:34:47;12.70;99.90
37998;DHT22;24079;51.824;4.682;2023-04-25T13:37:12;12.80;99.90
37998;DHT22;24079;51.824;4.682;2023-04-25T13:39:38;12.80;99.90
37998;DHT22;24079;51.824;4.682;2023-04-25T13:42:04;12.80;99.90
37998;DHT22;24079;51.824;4.682;2023-04-25T13:44:29;12.50;99.90
37998;DHT22;24079;51.824;4.682;2023-04-25T13:46:55;12.20;99.90
37998;DHT22;24079;51.824;4.682;2023-04-25T13:49:21;11.80;99.90
37998;DHT22;24079;51.824;4.682;2023-04-25T13:51:48;11.40;99.90
37998;DHT22;24079;51.824;4.682;2023-04-25T13:54:13;11.10;99.90
37998;DHT22;24079;51.824;4.682;2023-04-25T13:56:39;11.10;99.90
37998;DHT22;24079;51.824;4.682;2023-04-25T13:59:07;11.00;99.90
37998;DHT22;24079;51.824;4.682;2023-04-25T14:01:33;11.10;99.90
37998;DHT22;24079;51.824;4.682;2023-04-25T14:04:01;11.00;99.90
37998;DHT22;24079;51.824;4.682;2023-04-25T14:06:27;11.10;99.90
37998;DHT22;24079;51.824;4.682;2023-04-25T14:08:53;11.00;99.90
37998;DHT22;24079;51.824;4.682;2023-04-25T14:11:19;10.90;99.90
37998;DHT22;24079;51.824;4.682;2023-04-25T14:13:45;10.80;99.90
37998;DHT22;24079;51.824;4.682;2023-04-25T14:16:11;10.70;99.90
37998;DHT22;24079;51.824;4.682;2023-04-25T14:18:37;10.70;99.90
37998;DHT22;24079;51.824;4.682;2023-04-25T14:21:02;10.70;99.90
37998;DHT22;24079;51.824;4.682;2023-04-25T14:23:28;10.90;99.90
37998;DHT22;24079;51.824;4.682;2023-04-25T14:25:54;11.20;99.90
37998;DHT22;24079;51.824;4.682;2023-04-25T14:28:19;11.40;99.90
37998;DHT22;24079;51.824;4.682;2023-04-25T14:30:45;11.30;99.90
37998;DHT22;24079;51.824;4.682;2023-04-25T14:33:11;11.20;99.90
37998;DHT22;24079;51.824;4.682;2023-04-25T14:35:37;11.20;99.90
37998;DHT22;24079;51.824;4.682;2023-04-25T14:38:03;11.10;99.90
37998;DHT22;24079;51.824;4.682;2023-04-25T14:40:28;11.10;99.90
37998;DHT22;24079;51.824;4.682;2023-04-25T14:42:54;11.30;99.90
37998;DHT22;24079;51.824;4.682;2023-04-25T14:45:20;11.30;99.90
37998;DHT22;24079;51.824;4.682;2023-04-25T14:47:46;11.00;99.90
37998;DHT22;24079;51.824;4.682;2023-04-25T14:50:11;10.80;99.90
37998;DHT22;24079;51.824;4.682;2023-04-25T14:52:37;10.80;99.90
37998;DHT22;24079;51.824;4.682;2023-04-25T14:55:03;11.00;99.90
37998;DHT22;24079;51.824;4.682;2023-04-25T14:57:33;10.90;99.90
37998;DHT22;24079;51.824;4.682;2023-04-25T14:59:59;11.00;99.90
37998;DHT22;24079;51.824;4.682;2023-04-25T15:02:25;11.10;99.90
37998;DHT22;24079;51.824;4.682;2023-04-25T15:04:51;11.00;99.90
37998;DHT22;24079;51.824;4.682;2023-04-25T15:07:17;10.90;99.90
37998;DHT22;24079;51.824;4.682;2023-04-25T15:09:42;10.90;99.90
37998;DHT22;24079;51.824;4.682;2023-04-25T15:12:09;10.90;99.90
37998;DHT22;24079;51.824;4.682;2023-04-25T15:14:35;10.80;99.90
37998;DHT22;24079;51.824;4.682;2023-04-25T15:17:00;10.80;99.90
37998;DHT22;24079;51.824;4.682;2023-04-25T15:19:26;10.90;99.90
37998;DHT22;24079;51.824;4.682;2023-04-25T15:21:52;10.80;99.90
37998;DHT22;24079;51.824;4.682;2023-04-25T15:24:18;10.80;99.90
37998;DHT22;24079;51.824;4.682;2023-04-25T15:26:43;10.80;99.90
37998;DHT22;24079;51.824;4.682;2023-04-25T15:29:10;10.60;99.90
37998;DHT22;24079;51.824;4.682;2023-04-25T15:31:37;10.60;99.90
37998;DHT22;24079;51.824;4.682;2023-04-25T15:34:03;10.60;99.90
37998;DHT22;24079;51.824;4.682;2023-04-25T15:36:29;10.60;99.90
37998;DHT22;24079;51.824;4.682;2023-04-25T15:38:56;10.70;99.90